MOL Beyond — VRPN8 — position and weather

sailwx.info

Track history (hours):
 
Tides and Currents Weather Stations Pressure Air Temp Water Temp Dewpoint Dewpoint Depression Visibility Wind Speed Wind Dir Waves Ship Positions

MOL Beyond

Last reported at 2018-Feb-25 03:31 UTC. Time now 2018-Feb-25 03:50 UTC.
Position N 51°35' E 001°56'.

Length 337 m; draft 14.5 m.

Type: Ship (hazmat cat A). MMSI: 477348300.

Date/timePositionNaut miles runAvg speedWind from/ knotsBaromVisibWave heightAir tempDewpointWater temp
2018-Feb-25 03:31N 51°35' E 001°56'0 0.7
2018-Feb-25 03:00N 51°35' E 001°55'0 0.9
2018-Feb-25 02:31N 51°34' E 001°56'4 8.0
2018-Feb-25 02:01N 51°30' E 001°56'5 9.4
2018-Feb-25 01:30N 51°26' E 001°59'612.3
2018-Feb-25 01:00N 51°23' E 002°08'612.6
2018-Feb-25 00:30N 51°20' E 002°17'713.3
2018-Feb-25 00:00N 51°22' E 002°27'612.9
2018-Feb-24 23:31N 51°23' E 002°37'510.8
2018-Feb-24 23:00N 51°24' E 002°45'612.7
2018-Feb-24 22:31N 51°25' E 002°55'917.9
2018-Feb-24 22:00N 51°24' E 003°10'917.9
2018-Feb-24 21:31N 51°25' E 003°24'814.9
2018-Feb-24 21:00N 51°26' E 003°36'5 9.6
2018-Feb-24 20:30N 51°24' E 003°43'510.1
2018-Feb-24 20:00N 51°21' E 003°49'611.6
2018-Feb-24 19:30N 51°24' E 003°57'3 6.4
2018-Feb-24 19:00N 51°24' E 004°02'5 9.7
2018-Feb-24 18:31N 51°23' E 004°10'3 5.9
2018-Feb-24 18:00N 51°22' E 004°14'1 2.1
2018-Feb-24 17:30N 51°21' E 004°15'0 0.1
2018-Feb-24 17:00N 51°21' E 004°15'0 0.0
2018-Feb-24 16:30N 51°21' E 004°15'0 0.0
2018-Feb-24 16:01N 51°21' E 004°15'0 0.0
2018-Feb-24 15:30N 51°21' E 004°15'0 0.0
2018-Feb-24 15:00N 51°21' E 004°15'0 0.0
2018-Feb-24 14:30N 51°21' E 004°15'0 0.0
2018-Feb-24 14:00N 51°21' E 004°15'0 0.0
2018-Feb-24 13:30N 51°21' E 004°15'0 0.0
2018-Feb-24 13:00N 51°21' E 004°15'0 0.0
2018-Feb-24 12:30N 51°21' E 004°15'0 0.0
2018-Feb-24 12:01N 51°21' E 004°15'0 0.0
2018-Feb-24 11:30N 51°21' E 004°15'0 0.0
2018-Feb-24 11:01N 51°21' E 004°15'0 0.0
2018-Feb-24 10:30N 51°21' E 004°15'0 0.0
2018-Feb-24 10:00N 51°21' E 004°15'0 0.0
2018-Feb-24 09:30N 51°21' E 004°15'0 0.0
2018-Feb-24 09:00N 51°21' E 004°15'0 0.0
2018-Feb-24 08:31N 51°21' E 004°15'0 0.0
2018-Feb-24 08:00N 51°21' E 004°15'0 0.0
2018-Feb-24 07:31N 51°21' E 004°15'0 0.0
2018-Feb-24 07:00N 51°21' E 004°15'0 0.0
2018-Feb-24 06:31N 51°21' E 004°15'0 0.0
2018-Feb-24 06:01N 51°21' E 004°15'0 0.0
2018-Feb-24 05:30N 51°21' E 004°15'0 0.0
2018-Feb-24 05:00N 51°21' E 004°15'0 0.0
2018-Feb-24 04:30N 51°21' E 004°15'0 0.0
2018-Feb-24 04:00N 51°21' E 004°15'0 0.0
2018-Feb-24 03:31N 51°21' E 004°15'0 0.0
2018-Feb-24 03:00N 51°21' E 004°15'0 0.0
2018-Feb-24 02:30N 51°21' E 004°15'0 0.0
2018-Feb-24 02:00N 51°21' E 004°15'0 0.0
2018-Feb-24 01:30N 51°21' E 004°15'0 0.0
2018-Feb-24 01:00N 51°21' E 004°15'0 0.0
2018-Feb-24 00:31N 51°21' E 004°15'0 0.0
2018-Feb-24 00:00N 51°21' E 004°15'0 0.0
2018-Feb-23 23:31N 51°21' E 004°15'0 0.0
2018-Feb-23 23:00N 51°21' E 004°15'0 0.0
2018-Feb-23 22:30N 51°21' E 004°15'0 0.0
2018-Feb-23 22:00N 51°21' E 004°15'0 0.0
2018-Feb-23 21:30N 51°21' E 004°15'0 0.0
2018-Feb-23 21:00N 51°21' E 004°15'0 0.0
2018-Feb-23 20:30N 51°21' E 004°15'0 0.0
2018-Feb-23 20:01N 51°21' E 004°15'0 0.0
2018-Feb-23 19:30N 51°21' E 004°15'0 0.0
2018-Feb-23 19:01N 51°21' E 004°15'0 0.0
2018-Feb-23 18:31N 51°21' E 004°15'0 0.0
2018-Feb-23 18:00N 51°21' E 004°15'2 4.0
2018-Feb-23 17:30N 51°22' E 004°13'3 6.5
2018-Feb-23 17:00N 51°22' E 004°08'4 8.8
2018-Feb-23 16:30N 51°25' E 004°02'3 6.7
2018-Feb-23 16:00N 51°23' E 003°57'611.1
2018-Feb-23 15:30N 51°21' E 003°49'510.0
2018-Feb-23 15:00N 51°24' E 003°43'5 9.7
2018-Feb-23 14:30N 51°26' E 003°36'4 8.0
2018-Feb-23 14:00N 51°25' E 003°29'815.8
2018-Feb-23 13:30N 51°24' E 003°17'815.9
2018-Feb-23 13:00N 51°24' E 003°04'5 9.2
2018-Feb-23 12:31N 51°29' E 003°02'816.0
2018-Feb-23 12:00N 51°35' E 003°10'714.5
2018-Feb-23 11:30N 51°42' E 003°13'510.6
2018-Feb-23 11:00N 51°47' E 003°15'510.3
2018-Feb-23 10:30N 51°52' E 003°17'1511.5
2018-Feb-23 09:14N 52°06' E 003°21'416.1
2018-Feb-23 08:59N 52°10' E 003°22'817.4
2018-Feb-23 08:30N 52°18' E 003°25'917.2
2018-Feb-23 08:00N 52°27' E 003°27'917.0
2018-Feb-23 07:29N 52°36' E 003°30'714.9
2018-Feb-23 07:00N 52°42' E 003°36'816.5
2018-Feb-23 06:30N 52°48' E 003°45'918.0
2018-Feb-23 06:00N 52°55' E 003°55'918.8
2018-Feb-23 05:30N 53°01' E 004°07'1019.1
2018-Feb-23 05:00N 53°07' E 004°19'1018.9
2018-Feb-23 04:29N 53°15' E 004°27'919.1
2018-Feb-23 04:00N 53°24' E 004°32'918.1
2018-Feb-23 03:30N 53°31' E 004°43'1019.0
2018-Feb-23 02:58N 53°34' E 004°59'918.8
2018-Feb-23 02:29N 53°37' E 005°13'918.3
2018-Feb-23 01:59N 53°39' E 005°29'7917.8
2018-Feb-22 21:32N 54°01' E 007°37'117.4
2018-Feb-22 21:30N 54°01' E 007°38'816.9
2018-Feb-22 21:00N 54°01' E 007°52'917.4
2018-Feb-22 20:30N 54°01' E 008°07'816.0
2018-Feb-22 20:00N 53°60' E 008°20'1019.3
2018-Feb-22 19:31N 53°58' E 008°36'816.8
2018-Feb-22 19:00N 53°51' E 008°45'714.7
2018-Feb-22 18:30N 53°51' E 008°58'713.4
2018-Feb-22 18:00N 53°53' E 009°09'510.7
2018-Feb-22 17:30N 53°52' E 009°18'611.5
2018-Feb-22 17:00N 53°47' E 009°23'510.1
2018-Feb-22 16:31N 53°43' E 009°28'5 9.7
2018-Feb-22 16:01N 53°39' E 009°31'510.3
2018-Feb-22 15:30N 53°35' E 009°37'4 8.1
2018-Feb-22 15:00N 53°34' E 009°44'4 7.9
2018-Feb-22 14:30N 53°33' E 009°51'2 3.6
2018-Feb-22 14:00N 53°33' E 009°53'2 4.6
2018-Feb-22 13:30N 53°31' E 009°56'1 1.8
2018-Feb-22 12:58N 53°30' E 009°56'0 0.0
2018-Feb-22 12:30N 53°30' E 009°56'0 0.0
2018-Feb-22 11:58N 53°30' E 009°56'0 0.0
2018-Feb-22 11:28N 53°30' E 009°56'0 0.0
2018-Feb-22 10:58N 53°30' E 009°56'0 0.0
2018-Feb-22 10:28N 53°30' E 009°56'0 0.0
2018-Feb-22 10:00N 53°30' E 009°56'0 0.0
2018-Feb-22 09:28N 53°30' E 009°56'0 0.0
2018-Feb-22 08:57N 53°30' E 009°56'0 0.0
2018-Feb-22 08:31N 53°30' E 009°56'0 0.0
2018-Feb-22 08:00N 53°30' E 009°56'0 0.0
2018-Feb-22 07:30N 53°30' E 009°56'0 0.0
2018-Feb-22 06:57N 53°30' E 009°56'0 0.0
2018-Feb-22 06:28N 53°30' E 009°56'0 0.0
2018-Feb-22 05:58N 53°30' E 009°56'0 0.0
2018-Feb-22 05:30N 53°30' E 009°56'0 0.0
2018-Feb-22 04:58N 53°30' E 009°56'0 0.0
2018-Feb-22 04:28N 53°30' E 009°56'0 0.0
2018-Feb-22 04:01N 53°30' E 009°56'0 0.0
2018-Feb-22 03:28N 53°30' E 009°56'0 0.0
2018-Feb-22 03:01N 53°30' E 009°56'0 0.0
2018-Feb-22 02:30N 53°30' E 009°56'0 0.0
2018-Feb-22 02:01N 53°30' E 009°56'0 0.0
2018-Feb-22 01:28N 53°30' E 009°56'0 0.0
2018-Feb-22 01:01N 53°30' E 009°56'0 0.0
2018-Feb-22 00:27N 53°30' E 009°56'0 0.0
2018-Feb-22 00:01N 53°30' E 009°56'0 0.0
2018-Feb-21 23:28N 53°30' E 009°56'0 0.0
2018-Feb-21 23:01N 53°30' E 009°56'0 0.0
2018-Feb-21 22:28N 53°30' E 009°56'0 0.0
2018-Feb-21 22:01N 53°30' E 009°56'0 0.0
2018-Feb-21 21:30N 53°30' E 009°56'0 0.0
2018-Feb-21 21:01N 53°30' E 009°56'0 0.0
2018-Feb-21 20:27N 53°30' E 009°56'0 0.0
2018-Feb-21 20:01N 53°30' E 009°56'0 0.0
2018-Feb-21 19:30N 53°30' E 009°56'0 0.0
2018-Feb-21 18:58N 53°30' E 009°56'0 0.0
2018-Feb-21 18:28N 53°30' E 009°56'0 0.0
2018-Feb-21 18:01N 53°30' E 009°56'0 0.0
2018-Feb-21 17:30N 53°30' E 009°56'0 0.0
2018-Feb-21 17:01N 53°30' E 009°56'0 0.0
2018-Feb-21 16:30N 53°30' E 009°56'0 0.0
2018-Feb-21 16:00N 53°30' E 009°56'0 0.0
2018-Feb-21 15:31N 53°30' E 009°56'0 0.0
2018-Feb-21 15:00N 53°30' E 009°56'0 0.0
2018-Feb-21 14:31N 53°30' E 009°56'0 0.0
2018-Feb-21 14:00N 53°30' E 009°56'0 0.0
2018-Feb-21 13:30N 53°30' E 009°56'0 0.0
2018-Feb-21 13:00N 53°30' E 009°56'0 0.0
2018-Feb-21 12:30N 53°30' E 009°56'0 0.0
2018-Feb-21 12:00N 53°30' E 009°56'0 0.0
2018-Feb-21 11:31N 53°30' E 009°56'0 0.0
2018-Feb-21 11:00N 53°30' E 009°56'0 0.0
2018-Feb-21 10:30N 53°30' E 009°56'0 0.0
2018-Feb-21 10:00N 53°30' E 009°56'0 0.0
2018-Feb-21 09:31N 53°30' E 009°56'0 0.0
2018-Feb-21 09:00N 53°30' E 009°56'0 0.0
2018-Feb-21 08:30N 53°30' E 009°56'0 0.0
2018-Feb-21 08:00N 53°30' E 009°56'0 0.0
2018-Feb-21 07:30N 53°30' E 009°56'0 0.0
2018-Feb-21 07:01N 53°30' E 009°56'0 0.0
2018-Feb-21 06:30N 53°30' E 009°56'0 0.0
2018-Feb-21 06:00N 53°30' E 009°56'0 0.0
2018-Feb-21 05:30N 53°30' E 009°56'0 0.0
2018-Feb-21 05:00N 53°30' E 009°56'0 0.0
2018-Feb-21 04:30N 53°30' E 009°56'0 0.0
2018-Feb-21 04:00N 53°30' E 009°56'0 0.0
2018-Feb-21 03:30N 53°30' E 009°56'0 0.0
2018-Feb-21 03:00N 53°30' E 009°56'0 0.0
2018-Feb-21 02:30N 53°30' E 009°56'0 0.0
2018-Feb-21 02:00N 53°30' E 009°56'0 0.0
2018-Feb-21 01:30N 53°30' E 009°56'0 0.0
2018-Feb-21 01:00N 53°30' E 009°56'0 0.0
2018-Feb-21 00:30N 53°30' E 009°56'0 0.0
2018-Feb-21 00:00N 53°30' E 009°56'0 0.0
2018-Feb-20 23:30N 53°30' E 009°56'0 0.0
2018-Feb-20 23:00N 53°30' E 009°56'0 0.0
2018-Feb-20 22:30N 53°30' E 009°56'0 0.0
2018-Feb-20 22:00N 53°30' E 009°56'0 0.0
2018-Feb-20 21:30N 53°30' E 009°56'0 0.0
2018-Feb-20 21:00N 53°30' E 009°56'0 0.0
2018-Feb-20 20:30N 53°30' E 009°56'0 0.0
2018-Feb-20 20:00N 53°30' E 009°56'0 0.0
2018-Feb-20 19:30N 53°30' E 009°56'0 0.3
2018-Feb-20 19:01N 53°30' E 009°57'3 6.0
2018-Feb-20 18:31N 53°33' E 009°54'4 7.1
2018-Feb-20 18:01N 53°33' E 009°48'510.9
2018-Feb-20 17:30N 53°34' E 009°39'611.6
2018-Feb-20 17:00N 53°38' E 009°32'611.9
2018-Feb-20 16:30N 53°44' E 009°27'612.6
2018-Feb-20 16:01N 53°49' E 009°22'713.8
2018-Feb-20 15:30N 53°53' E 009°12'510.5
2018-Feb-20 15:00N 53°52' E 009°03'5 9.7
2018-Feb-20 14:30N 53°51' E 008°55'510.7
2018-Feb-20 14:01N 53°51' E 008°46'713.0
2018-Feb-20 13:31N 53°56' E 008°40'816.0
2018-Feb-20 13:00N 53°59' E 008°27'815.7
2018-Feb-20 12:30N 53°60' E 008°14'816.5
2018-Feb-20 12:00N 53°60' E 007°60'2 3.9
2018-Feb-20 11:30N 54°00' E 007°57'1 1.5
2018-Feb-20 11:00N 54°00' E 007°55'1 2.4
2018-Feb-20 10:30N 54°00' E 007°53'3 5.5
2018-Feb-20 09:58N 53°58' E 007°51'4 7.8
2018-Feb-20 09:30N 53°57' E 007°45'612.6
2018-Feb-20 09:00N 53°55' E 007°35'9618.9
2018-Feb-20 03:55N 53°29' E 004°59'819.1
2018-Feb-20 03:30N 53°26' E 004°46'1218.8
2018-Feb-20 02:52N 53°16' E 004°34'719.7
2018-Feb-20 02:30N 53°10' E 004°29'1019.7
2018-Feb-20 02:00N 53°01' E 004°22'1019.8
2018-Feb-20 01:31N 52°52' E 004°16'1119.7
2018-Feb-20 00:58N 52°43' E 004°07'919.4
2018-Feb-20 00:30N 52°35' E 003°59'1019.2
2018-Feb-20 00:00N 52°26' E 003°54'918.9
2018-Feb-19 23:31N 52°16' E 003°53'918.4
2018-Feb-19 23:01N 52°07' E 003°55'510.5
2018-Feb-19 22:30N 52°02' E 003°54'714.3
2018-Feb-19 22:00N 51°59' E 004°05'2 4.0
2018-Feb-19 21:30N 51°57' E 004°04'1 1.2
2018-Feb-19 20:58N 51°57' E 004°03'0 0.0
2018-Feb-19 20:28N 51°57' E 004°03'0 0.0
2018-Feb-19 19:58N 51°57' E 004°03'0 0.0
2018-Feb-19 19:28N 51°57' E 004°03'0 0.0
2018-Feb-19 18:58N 51°57' E 004°03'0 0.0
2018-Feb-19 18:28N 51°57' E 004°03'0 0.0
2018-Feb-19 17:58N 51°57' E 004°03'0 0.0
2018-Feb-19 17:28N 51°57' E 004°03'0 0.0
2018-Feb-19 16:58N 51°57' E 004°03'0 0.0
2018-Feb-19 16:28N 51°57' E 004°03'0 0.0
2018-Feb-19 15:58N 51°57' E 004°03'0 0.0
2018-Feb-19 15:28N 51°57' E 004°03'0 0.0
2018-Feb-19 14:58N 51°57' E 004°03'0 0.0
2018-Feb-19 14:28N 51°57' E 004°03'0 0.0
2018-Feb-19 13:58N 51°57' E 004°03'0 0.0
2018-Feb-19 13:28N 51°57' E 004°03'0 0.0
2018-Feb-19 12:58N 51°57' E 004°03'0 0.0
2018-Feb-19 12:28N 51°57' E 004°03'0 0.0
2018-Feb-19 11:58N 51°57' E 004°03'0 0.0
2018-Feb-19 11:28N 51°57' E 004°03'0 0.0
2018-Feb-19 10:58N 51°57' E 004°03'0 0.0
2018-Feb-19 10:28N 51°57' E 004°03'0 0.0
2018-Feb-19 09:58N 51°57' E 004°03'0 0.0
2018-Feb-19 09:28N 51°57' E 004°03'0 0.0
2018-Feb-19 08:58N 51°57' E 004°03'0 0.0
2018-Feb-19 08:28N 51°57' E 004°03'0 0.0
2018-Feb-19 07:58N 51°57' E 004°03'0 0.0
2018-Feb-19 07:28N 51°57' E 004°03'0 0.0
2018-Feb-19 06:58N 51°57' E 004°03'0 0.0
2018-Feb-19 06:25N 51°57' E 004°03'0 0.0
2018-Feb-19 05:58N 51°57' E 004°03'0 0.0
2018-Feb-19 05:28N 51°57' E 004°03'0 0.0
2018-Feb-19 04:58N 51°57' E 004°03'0 0.0
2018-Feb-19 04:25N 51°57' E 004°03'0 0.0
2018-Feb-19 03:58N 51°57' E 004°03'0 0.0
2018-Feb-19 03:28N 51°57' E 004°03'0 0.0
2018-Feb-19 02:58N 51°57' E 004°03'0 0.0
2018-Feb-19 02:28N 51°57' E 004°03'0 0.0
2018-Feb-19 01:58N 51°57' E 004°03'0 0.0
2018-Feb-19 01:28N 51°57' E 004°03'0 0.0
2018-Feb-19 00:58N 51°57' E 004°03'0 0.0
2018-Feb-19 00:28N 51°57' E 004°03'0 0.0
2018-Feb-18 23:58N 51°57' E 004°03'0 0.0
2018-Feb-18 23:28N 51°57' E 004°03'0 0.0
2018-Feb-18 22:58N 51°57' E 004°03'0 0.0
2018-Feb-18 22:28N 51°57' E 004°03'0 0.0
2018-Feb-18 21:58N 51°57' E 004°03'0 0.0
2018-Feb-18 21:28N 51°57' E 004°03'0 0.0
2018-Feb-18 20:58N 51°57' E 004°03'0 0.0
2018-Feb-18 20:28N 51°57' E 004°03'0 0.0
2018-Feb-18 19:58N 51°57' E 004°03'0 0.0
2018-Feb-18 19:28N 51°57' E 004°03'0 0.0
2018-Feb-18 18:58N 51°57' E 004°03'0 0.0
2018-Feb-18 18:28N 51°57' E 004°03'0 0.0
2018-Feb-18 17:58N 51°57' E 004°03'0 0.0
2018-Feb-18 17:28N 51°57' E 004°03'0 0.0
2018-Feb-18 16:58N 51°57' E 004°03'0 0.0
2018-Feb-18 16:28N 51°57' E 004°03'0 0.0
2018-Feb-18 15:58N 51°57' E 004°03'0 0.0
2018-Feb-18 15:28N 51°57' E 004°03'0 0.0
2018-Feb-18 14:58N 51°57' E 004°03'0 0.0
2018-Feb-18 14:28N 51°57' E 004°03'0 0.0
2018-Feb-18 13:58N 51°57' E 004°03'0 0.8
2018-Feb-18 13:30N 51°57' E 004°03'1 1.9
2018-Feb-18 13:00N 51°57' E 004°05'3 5.1
2018-Feb-18 12:30N 51°59' E 004°03'714.8
2018-Feb-18 12:00N 52°00' E 003°51'713.6
2018-Feb-18 11:30N 51°59' E 003°40'714.9
2018-Feb-18 11:01N 51°57' E 003°29'815.2
2018-Feb-18 10:30N 51°55' E 003°17'2018.8
2018-Feb-18 09:26N 51°50' E 002°45'818.7
2018-Feb-18 09:00N 51°44' E 002°36'1018.8
2018-Feb-18 08:28N 51°37' E 002°26'919.0
2018-Feb-18 08:00N 51°30' E 002°16'1019.1
2018-Feb-18 07:30N 51°21' E 002°10'1019.2
2018-Feb-18 07:00N 51°13' E 002°02'1019.3
2018-Feb-18 06:30N 51°08' E 001°49'1019.3
2018-Feb-18 06:01N 51°02' E 001°37'1020.1
2018-Feb-18 05:30N 50°54' E 001°27'1020.8
2018-Feb-18 05:00N 50°44' E 001°23'1020.2
2018-Feb-18 04:30N 50°37' E 001°12'1020.1
2018-Feb-18 04:00N 50°31' E 000°59'1020.1
2018-Feb-18 03:30N 50°28' E 000°44'1019.9
2018-Feb-18 03:00N 50°24' E 000°29'1019.7
2018-Feb-18 02:30N 50°21' E 000°15'1019.5
2018-Feb-18 02:00N 50°18' W 000°00'1019.5
2018-Feb-18 01:28N 50°14' W 000°15'919.7
2018-Feb-18 01:00N 50°10' W 000°28'1020.1
2018-Feb-18 00:30N 50°05' W 000°41'1020.8
2018-Feb-18 00:00N 50°00' W 000°56'1121.5
2018-Feb-17 23:31N 49°55' W 001°11'1122.0
2018-Feb-17 23:00N 49°50' W 001°26'1121.2
2018-Feb-17 22:30N 49°45' W 001°40'612.0
2018-Feb-17 22:00N 49°45' W 001°49'816.0
2018-Feb-17 21:30N 49°48' W 002°01'1121.7
2018-Feb-17 20:59N 49°52' W 002°17'1123.5
2018-Feb-17 20:29N 49°51' W 002°35'1223.9
2018-Feb-17 20:01N 49°47' W 002°52'1223.4
2018-Feb-17 19:28N 49°41' W 003°09'8523.2
2018-Feb-17 15:47N 49°01' W 005°05'622.7
2018-Feb-17 15:30N 48°58' W 005°13'1122.7
2018-Feb-17 15:00N 48°52' W 005°28'1322.3
2018-Feb-17 14:25N 48°42' W 005°41'1022.5
2018-Feb-17 14:00N 48°34' W 005°48'1622.0
2018-Feb-17 13:17N 48°20' W 005°59'1121.5
2018-Feb-17 12:48N 48°10' W 006°06'53318.8
2018-Feb-16 08:30N 39°42' W 009°48'1118.6
2018-Feb-16 07:53N 39°31' W 009°49'718.8
2018-Feb-16 07:30N 39°24' W 009°50'918.6
2018-Feb-16 07:00N 39°15' W 009°51'918.7
2018-Feb-16 06:30N 39°05' W 009°51'918.9
2018-Feb-16 06:00N 38°56' W 009°51'1019.3
2018-Feb-16 05:30N 38°46' W 009°52'1019.5
2018-Feb-16 05:00N 38°36' W 009°51'1019.3
2018-Feb-16 04:30N 38°27' W 009°48'918.7
2018-Feb-16 04:01N 38°18' W 009°45'1019.2
2018-Feb-16 03:30N 38°09' W 009°42'1019.1
2018-Feb-16 03:00N 37°59' W 009°39'1019.3
2018-Feb-16 02:30N 37°50' W 009°37'1019.8
2018-Feb-16 02:00N 37°40' W 009°34'1819.5
2018-Feb-16 01:05N 37°23' W 009°28'119.5
2018-Feb-16 01:00N 37°21' W 009°28'1019.3
2018-Feb-16 00:30N 37°12' W 009°25'5318.1
2018-Feb-15 21:34N 36°36' W 008°35'14920.7
2018-Feb-15 14:22N 35°58' W 005°36'719.5
2018-Feb-15 14:00N 36°00' W 005°28'918.4
2018-Feb-15 13:30N 36°02' W 005°17'  
Track history (hours):
 
Tides and Currents Weather Stations Pressure Air Temp Water Temp Dewpoint Dewpoint Depression Visibility Wind Speed Wind Dir Waves Ship Positions

MOL Beyond

Last reported at 2018-Feb-25 03:31 UTC. Time now 2018-Feb-25 03:50 UTC.
Position N 51°35' E 001°56'.

Length 337 m; draft 14.5 m.

Type: Ship (hazmat cat A). MMSI: 477348300.

Date/timePositionNaut miles runAvg speedWind from/ knotsBaromVisibWave heightAir tempDewpointWater temp
2018-Feb-25 03:31N 51°35' E 001°56'0 0.7
2018-Feb-25 03:00N 51°35' E 001°55'0 0.9
2018-Feb-25 02:31N 51°34' E 001°56'4 8.0
2018-Feb-25 02:01N 51°30' E 001°56'5 9.4
2018-Feb-25 01:30N 51°26' E 001°59'612.3
2018-Feb-25 01:00N 51°23' E 002°08'612.6
2018-Feb-25 00:30N 51°20' E 002°17'713.3
2018-Feb-25 00:00N 51°22' E 002°27'612.9
2018-Feb-24 23:31N 51°23' E 002°37'510.8
2018-Feb-24 23:00N 51°24' E 002°45'612.7
2018-Feb-24 22:31N 51°25' E 002°55'917.9
2018-Feb-24 22:00N 51°24' E 003°10'917.9
2018-Feb-24 21:31N 51°25' E 003°24'814.9
2018-Feb-24 21:00N 51°26' E 003°36'5 9.6
2018-Feb-24 20:30N 51°24' E 003°43'510.1
2018-Feb-24 20:00N 51°21' E 003°49'611.6
2018-Feb-24 19:30N 51°24' E 003°57'3 6.4
2018-Feb-24 19:00N 51°24' E 004°02'5 9.7
2018-Feb-24 18:31N 51°23' E 004°10'3 5.9
2018-Feb-24 18:00N 51°22' E 004°14'1 2.1
2018-Feb-24 17:30N 51°21' E 004°15'0 0.1
2018-Feb-24 17:00N 51°21' E 004°15'0 0.0
2018-Feb-24 16:30N 51°21' E 004°15'0 0.0
2018-Feb-24 16:01N 51°21' E 004°15'0 0.0
2018-Feb-24 15:30N 51°21' E 004°15'0 0.0
2018-Feb-24 15:00N 51°21' E 004°15'0 0.0
2018-Feb-24 14:30N 51°21' E 004°15'0 0.0
2018-Feb-24 14:00N 51°21' E 004°15'0 0.0
2018-Feb-24 13:30N 51°21' E 004°15'0 0.0
2018-Feb-24 13:00N 51°21' E 004°15'0 0.0
2018-Feb-24 12:30N 51°21' E 004°15'0 0.0
2018-Feb-24 12:01N 51°21' E 004°15'0 0.0
2018-Feb-24 11:30N 51°21' E 004°15'0 0.0
2018-Feb-24 11:01N 51°21' E 004°15'0 0.0
2018-Feb-24 10:30N 51°21' E 004°15'0 0.0
2018-Feb-24 10:00N 51°21' E 004°15'0 0.0
2018-Feb-24 09:30N 51°21' E 004°15'0 0.0
2018-Feb-24 09:00N 51°21' E 004°15'0 0.0
2018-Feb-24 08:31N 51°21' E 004°15'0 0.0
2018-Feb-24 08:00N 51°21' E 004°15'0 0.0
2018-Feb-24 07:31N 51°21' E 004°15'0 0.0
2018-Feb-24 07:00N 51°21' E 004°15'0 0.0
2018-Feb-24 06:31N 51°21' E 004°15'0 0.0
2018-Feb-24 06:01N 51°21' E 004°15'0 0.0
2018-Feb-24 05:30N 51°21' E 004°15'0 0.0
2018-Feb-24 05:00N 51°21' E 004°15'0 0.0
2018-Feb-24 04:30N 51°21' E 004°15'0 0.0
2018-Feb-24 04:00N 51°21' E 004°15'0 0.0
2018-Feb-24 03:31N 51°21' E 004°15'0 0.0
2018-Feb-24 03:00N 51°21' E 004°15'0 0.0
2018-Feb-24 02:30N 51°21' E 004°15'0 0.0
2018-Feb-24 02:00N 51°21' E 004°15'0 0.0
2018-Feb-24 01:30N 51°21' E 004°15'0 0.0
2018-Feb-24 01:00N 51°21' E 004°15'0 0.0
2018-Feb-24 00:31N 51°21' E 004°15'0 0.0
2018-Feb-24 00:00N 51°21' E 004°15'0 0.0
2018-Feb-23 23:31N 51°21' E 004°15'0 0.0
2018-Feb-23 23:00N 51°21' E 004°15'0 0.0
2018-Feb-23 22:30N 51°21' E 004°15'0 0.0
2018-Feb-23 22:00N 51°21' E 004°15'0 0.0
2018-Feb-23 21:30N 51°21' E 004°15'0 0.0
2018-Feb-23 21:00N 51°21' E 004°15'0 0.0
2018-Feb-23 20:30N 51°21' E 004°15'0 0.0
2018-Feb-23 20:01N 51°21' E 004°15'0 0.0
2018-Feb-23 19:30N 51°21' E 004°15'0 0.0
2018-Feb-23 19:01N 51°21' E 004°15'0 0.0
2018-Feb-23 18:31N 51°21' E 004°15'0 0.0
2018-Feb-23 18:00N 51°21' E 004°15'2 4.0
2018-Feb-23 17:30N 51°22' E 004°13'3 6.5
2018-Feb-23 17:00N 51°22' E 004°08'4 8.8
2018-Feb-23 16:30N 51°25' E 004°02'3 6.7
2018-Feb-23 16:00N 51°23' E 003°57'611.1
2018-Feb-23 15:30N 51°21' E 003°49'510.0
2018-Feb-23 15:00N 51°24' E 003°43'5 9.7
2018-Feb-23 14:30N 51°26' E 003°36'4 8.0
2018-Feb-23 14:00N 51°25' E 003°29'815.8
2018-Feb-23 13:30N 51°24' E 003°17'815.9
2018-Feb-23 13:00N 51°24' E 003°04'5 9.2
2018-Feb-23 12:31N 51°29' E 003°02'816.0
2018-Feb-23 12:00N 51°35' E 003°10'714.5
2018-Feb-23 11:30N 51°42' E 003°13'510.6
2018-Feb-23 11:00N 51°47' E 003°15'510.3
2018-Feb-23 10:30N 51°52' E 003°17'1511.5
2018-Feb-23 09:14N 52°06' E 003°21'416.1
2018-Feb-23 08:59N 52°10' E 003°22'817.4
2018-Feb-23 08:30N 52°18' E 003°25'917.2
2018-Feb-23 08:00N 52°27' E 003°27'917.0
2018-Feb-23 07:29N 52°36' E 003°30'714.9
2018-Feb-23 07:00N 52°42' E 003°36'816.5
2018-Feb-23 06:30N 52°48' E 003°45'918.0
2018-Feb-23 06:00N 52°55' E 003°55'918.8
2018-Feb-23 05:30N 53°01' E 004°07'1019.1
2018-Feb-23 05:00N 53°07' E 004°19'1018.9
2018-Feb-23 04:29N 53°15' E 004°27'919.1
2018-Feb-23 04:00N 53°24' E 004°32'918.1
2018-Feb-23 03:30N 53°31' E 004°43'1019.0
2018-Feb-23 02:58N 53°34' E 004°59'918.8
2018-Feb-23 02:29N 53°37' E 005°13'918.3
2018-Feb-23 01:59N 53°39' E 005°29'7917.8
2018-Feb-22 21:32N 54°01' E 007°37'117.4
2018-Feb-22 21:30N 54°01' E 007°38'816.9
2018-Feb-22 21:00N 54°01' E 007°52'917.4
2018-Feb-22 20:30N 54°01' E 008°07'816.0
2018-Feb-22 20:00N 53°60' E 008°20'1019.3
2018-Feb-22 19:31N 53°58' E 008°36'816.8
2018-Feb-22 19:00N 53°51' E 008°45'714.7
2018-Feb-22 18:30N 53°51' E 008°58'713.4
2018-Feb-22 18:00N 53°53' E 009°09'510.7
2018-Feb-22 17:30N 53°52' E 009°18'611.5
2018-Feb-22 17:00N 53°47' E 009°23'510.1
2018-Feb-22 16:31N 53°43' E 009°28'5 9.7
2018-Feb-22 16:01N 53°39' E 009°31'510.3
2018-Feb-22 15:30N 53°35' E 009°37'4 8.1
2018-Feb-22 15:00N 53°34' E 009°44'4 7.9
2018-Feb-22 14:30N 53°33' E 009°51'2 3.6
2018-Feb-22 14:00N 53°33' E 009°53'2 4.6
2018-Feb-22 13:30N 53°31' E 009°56'1 1.8
2018-Feb-22 12:58N 53°30' E 009°56'0 0.0
2018-Feb-22 12:30N 53°30' E 009°56'0 0.0
2018-Feb-22 11:58N 53°30' E 009°56'0 0.0
2018-Feb-22 11:28N 53°30' E 009°56'0 0.0
2018-Feb-22 10:58N 53°30' E 009°56'0 0.0
2018-Feb-22 10:28N 53°30' E 009°56'0 0.0
2018-Feb-22 10:00N 53°30' E 009°56'0 0.0
2018-Feb-22 09:28N 53°30' E 009°56'0 0.0
2018-Feb-22 08:57N 53°30' E 009°56'0 0.0
2018-Feb-22 08:31N 53°30' E 009°56'0 0.0
2018-Feb-22 08:00N 53°30' E 009°56'0 0.0
2018-Feb-22 07:30N 53°30' E 009°56'0 0.0
2018-Feb-22 06:57N 53°30' E 009°56'0 0.0
2018-Feb-22 06:28N 53°30' E 009°56'0 0.0
2018-Feb-22 05:58N 53°30' E 009°56'0 0.0
2018-Feb-22 05:30N 53°30' E 009°56'0 0.0
2018-Feb-22 04:58N 53°30' E 009°56'0 0.0
2018-Feb-22 04:28N 53°30' E 009°56'0 0.0
2018-Feb-22 04:01N 53°30' E 009°56'0 0.0
2018-Feb-22 03:28N 53°30' E 009°56'0 0.0
2018-Feb-22 03:01N 53°30' E 009°56'0 0.0
2018-Feb-22 02:30N 53°30' E 009°56'0 0.0
2018-Feb-22 02:01N 53°30' E 009°56'0 0.0
2018-Feb-22 01:28N 53°30' E 009°56'0 0.0
2018-Feb-22 01:01N 53°30' E 009°56'0 0.0
2018-Feb-22 00:27N 53°30' E 009°56'0 0.0
2018-Feb-22 00:01N 53°30' E 009°56'0 0.0
2018-Feb-21 23:28N 53°30' E 009°56'0 0.0
2018-Feb-21 23:01N 53°30' E 009°56'0 0.0
2018-Feb-21 22:28N 53°30' E 009°56'0 0.0
2018-Feb-21 22:01N 53°30' E 009°56'0 0.0
2018-Feb-21 21:30N 53°30' E 009°56'0 0.0
2018-Feb-21 21:01N 53°30' E 009°56'0 0.0
2018-Feb-21 20:27N 53°30' E 009°56'0 0.0
2018-Feb-21 20:01N 53°30' E 009°56'0 0.0
2018-Feb-21 19:30N 53°30' E 009°56'0 0.0
2018-Feb-21 18:58N 53°30' E 009°56'0 0.0
2018-Feb-21 18:28N 53°30' E 009°56'0 0.0
2018-Feb-21 18:01N 53°30' E 009°56'0 0.0
2018-Feb-21 17:30N 53°30' E 009°56'0 0.0
2018-Feb-21 17:01N 53°30' E 009°56'0 0.0
2018-Feb-21 16:30N 53°30' E 009°56'0 0.0
2018-Feb-21 16:00N 53°30' E 009°56'0 0.0
2018-Feb-21 15:31N 53°30' E 009°56'0 0.0
2018-Feb-21 15:00N 53°30' E 009°56'0 0.0
2018-Feb-21 14:31N 53°30' E 009°56'0 0.0
2018-Feb-21 14:00N 53°30' E 009°56'0 0.0
2018-Feb-21 13:30N 53°30' E 009°56'0 0.0
2018-Feb-21 13:00N 53°30' E 009°56'0 0.0
2018-Feb-21 12:30N 53°30' E 009°56'0 0.0
2018-Feb-21 12:00N 53°30' E 009°56'0 0.0
2018-Feb-21 11:31N 53°30' E 009°56'0 0.0
2018-Feb-21 11:00N 53°30' E 009°56'0 0.0
2018-Feb-21 10:30N 53°30' E 009°56'0 0.0
2018-Feb-21 10:00N 53°30' E 009°56'0 0.0
2018-Feb-21 09:31N 53°30' E 009°56'0 0.0
2018-Feb-21 09:00N 53°30' E 009°56'0 0.0
2018-Feb-21 08:30N 53°30' E 009°56'0 0.0
2018-Feb-21 08:00N 53°30' E 009°56'0 0.0
2018-Feb-21 07:30N 53°30' E 009°56'0 0.0
2018-Feb-21 07:01N 53°30' E 009°56'0 0.0
2018-Feb-21 06:30N 53°30' E 009°56'0 0.0
2018-Feb-21 06:00N 53°30' E 009°56'0 0.0
2018-Feb-21 05:30N 53°30' E 009°56'0 0.0
2018-Feb-21 05:00N 53°30' E 009°56'0 0.0
2018-Feb-21 04:30N 53°30' E 009°56'0 0.0
2018-Feb-21 04:00N 53°30' E 009°56'0 0.0
2018-Feb-21 03:30N 53°30' E 009°56'0 0.0
2018-Feb-21 03:00N 53°30' E 009°56'0 0.0
2018-Feb-21 02:30N 53°30' E 009°56'0 0.0
2018-Feb-21 02:00N 53°30' E 009°56'0 0.0
2018-Feb-21 01:30N 53°30' E 009°56'0 0.0
2018-Feb-21 01:00N 53°30' E 009°56'0 0.0
2018-Feb-21 00:30N 53°30' E 009°56'0 0.0
2018-Feb-21 00:00N 53°30' E 009°56'0 0.0
2018-Feb-20 23:30N 53°30' E 009°56'0 0.0
2018-Feb-20 23:00N 53°30' E 009°56'0 0.0
2018-Feb-20 22:30N 53°30' E 009°56'0 0.0
2018-Feb-20 22:00N 53°30' E 009°56'0 0.0
2018-Feb-20 21:30N 53°30' E 009°56'0 0.0
2018-Feb-20 21:00N 53°30' E 009°56'0 0.0
2018-Feb-20 20:30N 53°30' E 009°56'0 0.0
2018-Feb-20 20:00N 53°30' E 009°56'0 0.0
2018-Feb-20 19:30N 53°30' E 009°56'0 0.3
2018-Feb-20 19:01N 53°30' E 009°57'3 6.0
2018-Feb-20 18:31N 53°33' E 009°54'4 7.1
2018-Feb-20 18:01N 53°33' E 009°48'510.9
2018-Feb-20 17:30N 53°34' E 009°39'611.6
2018-Feb-20 17:00N 53°38' E 009°32'611.9
2018-Feb-20 16:30N 53°44' E 009°27'612.6
2018-Feb-20 16:01N 53°49' E 009°22'713.8
2018-Feb-20 15:30N 53°53' E 009°12'510.5
2018-Feb-20 15:00N 53°52' E 009°03'5 9.7
2018-Feb-20 14:30N 53°51' E 008°55'510.7
2018-Feb-20 14:01N 53°51' E 008°46'713.0
2018-Feb-20 13:31N 53°56' E 008°40'816.0
2018-Feb-20 13:00N 53°59' E 008°27'815.7
2018-Feb-20 12:30N 53°60' E 008°14'816.5
2018-Feb-20 12:00N 53°60' E 007°60'2 3.9
2018-Feb-20 11:30N 54°00' E 007°57'1 1.5
2018-Feb-20 11:00N 54°00' E 007°55'1 2.4
2018-Feb-20 10:30N 54°00' E 007°53'3 5.5
2018-Feb-20 09:58N 53°58' E 007°51'4 7.8
2018-Feb-20 09:30N 53°57' E 007°45'612.6
2018-Feb-20 09:00N 53°55' E 007°35'9618.9
2018-Feb-20 03:55N 53°29' E 004°59'819.1
2018-Feb-20 03:30N 53°26' E 004°46'1218.8
2018-Feb-20 02:52N 53°16' E 004°34'719.7
2018-Feb-20 02:30N 53°10' E 004°29'1019.7
2018-Feb-20 02:00N 53°01' E 004°22'1019.8
2018-Feb-20 01:31N 52°52' E 004°16'1119.7
2018-Feb-20 00:58N 52°43' E 004°07'919.4
2018-Feb-20 00:30N 52°35' E 003°59'1019.2
2018-Feb-20 00:00N 52°26' E 003°54'918.9
2018-Feb-19 23:31N 52°16' E 003°53'918.4
2018-Feb-19 23:01N 52°07' E 003°55'510.5
2018-Feb-19 22:30N 52°02' E 003°54'714.3
2018-Feb-19 22:00N 51°59' E 004°05'2 4.0
2018-Feb-19 21:30N 51°57' E 004°04'1 1.2
2018-Feb-19 20:58N 51°57' E 004°03'0 0.0
2018-Feb-19 20:28N 51°57' E 004°03'0 0.0
2018-Feb-19 19:58N 51°57' E 004°03'0 0.0
2018-Feb-19 19:28N 51°57' E 004°03'0 0.0
2018-Feb-19 18:58N 51°57' E 004°03'0 0.0
2018-Feb-19 18:28N 51°57' E 004°03'0 0.0
2018-Feb-19 17:58N 51°57' E 004°03'0 0.0
2018-Feb-19 17:28N 51°57' E 004°03'0 0.0
2018-Feb-19 16:58N 51°57' E 004°03'0 0.0
2018-Feb-19 16:28N 51°57' E 004°03'0 0.0
2018-Feb-19 15:58N 51°57' E 004°03'0 0.0
2018-Feb-19 15:28N 51°57' E 004°03'0 0.0
2018-Feb-19 14:58N 51°57' E 004°03'0 0.0
2018-Feb-19 14:28N 51°57' E 004°03'0 0.0
2018-Feb-19 13:58N 51°57' E 004°03'0 0.0
2018-Feb-19 13:28N 51°57' E 004°03'0 0.0
2018-Feb-19 12:58N 51°57' E 004°03'0 0.0
2018-Feb-19 12:28N 51°57' E 004°03'0 0.0
2018-Feb-19 11:58N 51°57' E 004°03'0 0.0
2018-Feb-19 11:28N 51°57' E 004°03'0 0.0
2018-Feb-19 10:58N 51°57' E 004°03'0 0.0
2018-Feb-19 10:28N 51°57' E 004°03'0 0.0
2018-Feb-19 09:58N 51°57' E 004°03'0 0.0
2018-Feb-19 09:28N 51°57' E 004°03'0 0.0
2018-Feb-19 08:58N 51°57' E 004°03'0 0.0
2018-Feb-19 08:28N 51°57' E 004°03'0 0.0
2018-Feb-19 07:58N 51°57' E 004°03'0 0.0
2018-Feb-19 07:28N 51°57' E 004°03'0 0.0
2018-Feb-19 06:58N 51°57' E 004°03'0 0.0
2018-Feb-19 06:25N 51°57' E 004°03'0 0.0
2018-Feb-19 05:58N 51°57' E 004°03'0 0.0
2018-Feb-19 05:28N 51°57' E 004°03'0 0.0
2018-Feb-19 04:58N 51°57' E 004°03'0 0.0
2018-Feb-19 04:25N 51°57' E 004°03'0 0.0
2018-Feb-19 03:58N 51°57' E 004°03'0 0.0
2018-Feb-19 03:28N 51°57' E 004°03'0 0.0
2018-Feb-19 02:58N 51°57' E 004°03'0 0.0
2018-Feb-19 02:28N 51°57' E 004°03'0 0.0
2018-Feb-19 01:58N 51°57' E 004°03'0 0.0
2018-Feb-19 01:28N 51°57' E 004°03'0 0.0
2018-Feb-19 00:58N 51°57' E 004°03'0 0.0
2018-Feb-19 00:28N 51°57' E 004°03'0 0.0
2018-Feb-18 23:58N 51°57' E 004°03'0 0.0
2018-Feb-18 23:28N 51°57' E 004°03'0 0.0
2018-Feb-18 22:58N 51°57' E 004°03'0 0.0
2018-Feb-18 22:28N 51°57' E 004°03'0 0.0
2018-Feb-18 21:58N 51°57' E 004°03'0 0.0
2018-Feb-18 21:28N 51°57' E 004°03'0 0.0
2018-Feb-18 20:58N 51°57' E 004°03'0 0.0
2018-Feb-18 20:28N 51°57' E 004°03'0 0.0
2018-Feb-18 19:58N 51°57' E 004°03'0 0.0
2018-Feb-18 19:28N 51°57' E 004°03'0 0.0
2018-Feb-18 18:58N 51°57' E 004°03'0 0.0
2018-Feb-18 18:28N 51°57' E 004°03'0 0.0
2018-Feb-18 17:58N 51°57' E 004°03'0 0.0
2018-Feb-18 17:28N 51°57' E 004°03'0 0.0
2018-Feb-18 16:58N 51°57' E 004°03'0 0.0
2018-Feb-18 16:28N 51°57' E 004°03'0 0.0
2018-Feb-18 15:58N 51°57' E 004°03'0 0.0
2018-Feb-18 15:28N 51°57' E 004°03'0 0.0
2018-Feb-18 14:58N 51°57' E 004°03'0 0.0
2018-Feb-18 14:28N 51°57' E 004°03'0 0.0
2018-Feb-18 13:58N 51°57' E 004°03'0 0.8
2018-Feb-18 13:30N 51°57' E 004°03'1 1.9
2018-Feb-18 13:00N 51°57' E 004°05'3 5.1
2018-Feb-18 12:30N 51°59' E 004°03'714.8
2018-Feb-18 12:00N 52°00' E 003°51'713.6
2018-Feb-18 11:30N 51°59' E 003°40'714.9
2018-Feb-18 11:01N 51°57' E 003°29'815.2
2018-Feb-18 10:30N 51°55' E 003°17'2018.8
2018-Feb-18 09:26N 51°50' E 002°45'818.7
2018-Feb-18 09:00N 51°44' E 002°36'1018.8
2018-Feb-18 08:28N 51°37' E 002°26'919.0
2018-Feb-18 08:00N 51°30' E 002°16'1019.1
2018-Feb-18 07:30N 51°21' E 002°10'1019.2
2018-Feb-18 07:00N 51°13' E 002°02'1019.3
2018-Feb-18 06:30N 51°08' E 001°49'1019.3
2018-Feb-18 06:01N 51°02' E 001°37'1020.1
2018-Feb-18 05:30N 50°54' E 001°27'1020.8
2018-Feb-18 05:00N 50°44' E 001°23'1020.2
2018-Feb-18 04:30N 50°37' E 001°12'1020.1
2018-Feb-18 04:00N 50°31' E 000°59'1020.1
2018-Feb-18 03:30N 50°28' E 000°44'1019.9
2018-Feb-18 03:00N 50°24' E 000°29'1019.7
2018-Feb-18 02:30N 50°21' E 000°15'1019.5
2018-Feb-18 02:00N 50°18' W 000°00'1019.5
2018-Feb-18 01:28N 50°14' W 000°15'919.7
2018-Feb-18 01:00N 50°10' W 000°28'1020.1
2018-Feb-18 00:30N 50°05' W 000°41'1020.8
2018-Feb-18 00:00N 50°00' W 000°56'1121.5
2018-Feb-17 23:31N 49°55' W 001°11'1122.0
2018-Feb-17 23:00N 49°50' W 001°26'1121.2
2018-Feb-17 22:30N 49°45' W 001°40'612.0
2018-Feb-17 22:00N 49°45' W 001°49'816.0
2018-Feb-17 21:30N 49°48' W 002°01'1121.7
2018-Feb-17 20:59N 49°52' W 002°17'1123.5
2018-Feb-17 20:29N 49°51' W 002°35'1223.9
2018-Feb-17 20:01N 49°47' W 002°52'1223.4
2018-Feb-17 19:28N 49°41' W 003°09'8523.2
2018-Feb-17 15:47N 49°01' W 005°05'622.7
2018-Feb-17 15:30N 48°58' W 005°13'1122.7
2018-Feb-17 15:00N 48°52' W 005°28'1322.3
2018-Feb-17 14:25N 48°42' W 005°41'1022.5
2018-Feb-17 14:00N 48°34' W 005°48'1622.0
2018-Feb-17 13:17N 48°20' W 005°59'1121.5
2018-Feb-17 12:48N 48°10' W 006°06'53318.8
2018-Feb-16 08:30N 39°42' W 009°48'1118.6
2018-Feb-16 07:53N 39°31' W 009°49'718.8
2018-Feb-16 07:30N 39°24' W 009°50'918.6
2018-Feb-16 07:00N 39°15' W 009°51'918.7
2018-Feb-16 06:30N 39°05' W 009°51'918.9
2018-Feb-16 06:00N 38°56' W 009°51'1019.3
2018-Feb-16 05:30N 38°46' W 009°52'1019.5
2018-Feb-16 05:00N 38°36' W 009°51'1019.3
2018-Feb-16 04:30N 38°27' W 009°48'918.7
2018-Feb-16 04:01N 38°18' W 009°45'1019.2
2018-Feb-16 03:30N 38°09' W 009°42'1019.1
2018-Feb-16 03:00N 37°59' W 009°39'1019.3
2018-Feb-16 02:30N 37°50' W 009°37'1019.8
2018-Feb-16 02:00N 37°40' W 009°34'1819.5
2018-Feb-16 01:05N 37°23' W 009°28'119.5
2018-Feb-16 01:00N 37°21' W 009°28'1019.3
2018-Feb-16 00:30N 37°12' W 009°25'5318.1
2018-Feb-15 21:34N 36°36' W 008°35'14920.7
2018-Feb-15 14:22N 35°58' W 005°36'719.5
2018-Feb-15 14:00N 36°00' W 005°28'918.4
2018-Feb-15 13:30N 36°02' W 005°17'  

Dump ship's entire track history